sensor_id;sensor_type;location;lat;lon;timestamp;P1;durP1;ratioP1;P2;durP2;ratioP2
24030;SDS011;12240;51.142;22.486;2024-02-26T00:01:50;16.90;;;9.60;;
24030;SDS011;12240;51.142;22.486;2024-02-26T00:04:18;17.90;;;10.30;;
24030;SDS011;12240;51.142;22.486;2024-02-26T00:06:46;19.10;;;10.90;;
24030;SDS011;12240;51.142;22.486;2024-02-26T00:09:12;19.30;;;10.60;;
24030;SDS011;12240;51.142;22.486;2024-02-26T00:11:39;17.60;;;10.30;;
24030;SDS011;12240;51.142;22.486;2024-02-26T00:14:06;15.20;;;8.90;;
24030;SDS011;12240;51.142;22.486;2024-02-26T00:16:33;20.60;;;9.90;;
24030;SDS011;12240;51.142;22.486;2024-02-26T00:19:00;19.00;;;10.30;;
24030;SDS011;12240;51.142;22.486;2024-02-26T00:21:27;20.90;;;10.10;;
24030;SDS011;12240;51.142;22.486;2024-02-26T00:23:54;17.00;;;9.90;;
24030;SDS011;12240;51.142;22.486;2024-02-26T00:26:21;19.00;;;10.50;;
24030;SDS011;12240;51.142;22.486;2024-02-26T00:28:47;17.20;;;10.20;;
24030;SDS011;12240;51.142;22.486;2024-02-26T00:31:15;16.20;;;10.20;;
24030;SDS011;12240;51.142;22.486;2024-02-26T00:33:43;19.80;;;9.40;;
24030;SDS011;12240;51.142;22.486;2024-02-26T00:36:10;18.90;;;11.40;;
24030;SDS011;12240;51.142;22.486;2024-02-26T00:38:37;20.30;;;10.90;;
24030;SDS011;12240;51.142;22.486;2024-02-26T00:41:06;16.90;;;10.40;;
24030;SDS011;12240;51.142;22.486;2024-02-26T00:43:32;23.50;;;11.40;;
24030;SDS011;12240;51.142;22.486;2024-02-26T00:45:59;18.40;;;10.80;;
24030;SDS011;12240;51.142;22.486;2024-02-26T00:48:26;22.00;;;12.40;;
24030;SDS011;12240;51.142;22.486;2024-02-26T00:50:53;20.20;;;11.20;;
24030;SDS011;12240;51.142;22.486;2024-02-26T00:53:20;21.90;;;12.20;;
24030;SDS011;12240;51.142;22.486;2024-02-26T00:55:47;22.00;;;11.70;;
24030;SDS011;12240;51.142;22.486;2024-02-26T00:58:15;21.40;;;12.00;;
24030;SDS011;12240;51.142;22.486;2024-02-26T01:00:41;21.00;;;12.10;;
24030;SDS011;12240;51.142;22.486;2024-02-26T01:03:08;18.10;;;10.90;;
24030;SDS011;12240;51.142;22.486;2024-02-26T01:05:37;20.20;;;12.10;;
24030;SDS011;12240;51.142;22.486;2024-02-26T01:08:04;18.70;;;11.10;;
24030;SDS011;12240;51.142;22.486;2024-02-26T01:10:31;20.70;;;11.20;;
24030;SDS011;12240;51.142;22.486;2024-02-26T01:12:58;17.80;;;10.80;;
24030;SDS011;12240;51.142;22.486;2024-02-26T01:15:25;23.00;;;12.20;;
24030;SDS011;12240;51.142;22.486;2024-02-26T01:17:52;20.80;;;11.90;;
24030;SDS011;12240;51.142;22.486;2024-02-26T01:20:19;24.10;;;11.80;;
24030;SDS011;12240;51.142;22.486;2024-02-26T01:22:45;21.80;;;13.00;;
24030;SDS011;12240;51.142;22.486;2024-02-26T01:25:13;18.90;;;11.30;;
24030;SDS011;12240;51.142;22.486;2024-02-26T01:27:42;20.30;;;12.10;;
24030;SDS011;12240;51.142;22.486;2024-02-26T01:30:10;19.30;;;10.50;;
24030;SDS011;12240;51.142;22.486;2024-02-26T01:32:37;18.60;;;11.60;;
24030;SDS011;12240;51.142;22.486;2024-02-26T01:35:04;21.20;;;10.50;;
24030;SDS011;12240;51.142;22.486;2024-02-26T01:37:35;20.10;;;10.20;;
24030;SDS011;12240;51.142;22.486;2024-02-26T01:40:03;19.60;;;10.90;;
24030;SDS011;12240;51.142;22.486;2024-02-26T01:42:30;19.70;;;11.30;;
24030;SDS011;12240;51.142;22.486;2024-02-26T01:45:00;23.20;;;11.20;;
24030;SDS011;12240;51.142;22.486;2024-02-26T01:47:27;18.50;;;10.20;;
24030;SDS011;12240;51.142;22.486;2024-02-26T01:49:54;22.10;;;10.80;;
24030;SDS011;12240;51.142;22.486;2024-02-26T01:52:22;20.10;;;11.30;;
24030;SDS011;12240;51.142;22.486;2024-02-26T01:54:49;17.50;;;10.30;;
24030;SDS011;12240;51.142;22.486;2024-02-26T01:57:16;19.70;;;10.50;;
24030;SDS011;12240;51.142;22.486;2024-02-26T01:59:44;19.50;;;10.70;;
24030;SDS011;12240;51.142;22.486;2024-02-26T02:02:11;17.40;;;10.90;;
24030;SDS011;12240;51.142;22.486;2024-02-26T02:04:40;24.80;;;11.70;;
24030;SDS011;12240;51.142;22.486;2024-02-26T02:07:07;16.50;;;9.80;;
24030;SDS011;12240;51.142;22.486;2024-02-26T02:09:34;19.10;;;10.20;;
24030;SDS011;12240;51.142;22.486;2024-02-26T02:12:01;18.20;;;10.90;;
24030;SDS011;12240;51.142;22.486;2024-02-26T02:14:28;20.30;;;12.40;;
24030;SDS011;12240;51.142;22.486;2024-02-26T02:16:55;20.20;;;10.80;;
24030;SDS011;12240;51.142;22.486;2024-02-26T02:19:22;22.70;;;9.90;;
24030;SDS011;12240;51.142;22.486;2024-02-26T02:21:48;21.50;;;11.20;;
24030;SDS011;12240;51.142;22.486;2024-02-26T02:24:15;22.30;;;11.40;;
24030;SDS011;12240;51.142;22.486;2024-02-26T02:26:42;15.40;;;9.50;;
24030;SDS011;12240;51.142;22.486;2024-02-26T02:29:09;19.10;;;10.10;;
24030;SDS011;12240;51.142;22.486;2024-02-26T02:31:36;15.80;;;9.40;;
24030;SDS011;12240;51.142;22.486;2024-02-26T02:34:03;19.70;;;10.80;;
24030;SDS011;12240;51.142;22.486;2024-02-26T02:36:30;16.50;;;9.80;;
24030;SDS011;12240;51.142;22.486;2024-02-26T02:38:57;17.50;;;9.80;;
24030;SDS011;12240;51.142;22.486;2024-02-26T02:41:24;16.40;;;10.20;;
24030;SDS011;12240;51.142;22.486;2024-02-26T02:43:53;20.60;;;10.80;;
24030;SDS011;12240;51.142;22.486;2024-02-26T02:46:19;17.80;;;9.50;;
24030;SDS011;12240;51.142;22.486;2024-02-26T02:48:46;22.00;;;11.70;;
24030;SDS011;12240;51.142;22.486;2024-02-26T02:51:13;18.80;;;11.40;;
24030;SDS011;12240;51.142;22.486;2024-02-26T02:53:40;16.90;;;10.50;;
24030;SDS011;12240;51.142;22.486;2024-02-26T02:56:07;21.00;;;12.20;;
24030;SDS011;12240;51.142;22.486;2024-02-26T02:58:33;22.10;;;13.00;;
24030;SDS011;12240;51.142;22.486;2024-02-26T03:03:49;19.40;;;11.10;;
24030;SDS011;12240;51.142;22.486;2024-02-26T03:06:17;20.10;;;11.70;;
24030;SDS011;12240;51.142;22.486;2024-02-26T03:08:44;20.70;;;12.20;;
24030;SDS011;12240;51.142;22.486;2024-02-26T03:11:14;19.70;;;13.00;;
24030;SDS011;12240;51.142;22.486;2024-02-26T03:13:41;25.40;;;12.10;;
24030;SDS011;12240;51.142;22.486;2024-02-26T03:16:08;20.60;;;11.90;;
24030;SDS011;12240;51.142;22.486;2024-02-26T03:18:35;19.50;;;11.90;;
24030;SDS011;12240;51.142;22.486;2024-02-26T03:21:02;17.90;;;12.20;;
24030;SDS011;12240;51.142;22.486;2024-02-26T03:23:29;20.70;;;10.80;;
24030;SDS011;12240;51.142;22.486;2024-02-26T03:25:58;25.00;;;12.70;;
24030;SDS011;12240;51.142;22.486;2024-02-26T03:28:25;24.70;;;12.60;;
24030;SDS011;12240;51.142;22.486;2024-02-26T03:30:51;22.30;;;14.10;;
24030;SDS011;12240;51.142;22.486;2024-02-26T03:33:18;18.20;;;11.20;;
24030;SDS011;12240;51.142;22.486;2024-02-26T03:35:45;19.50;;;12.20;;
24030;SDS011;12240;51.142;22.486;2024-02-26T03:38:12;17.90;;;11.50;;
24030;SDS011;12240;51.142;22.486;2024-02-26T03:40:39;19.50;;;12.60;;
24030;SDS011;12240;51.142;22.486;2024-02-26T03:43:06;21.20;;;10.70;;
24030;SDS011;12240;51.142;22.486;2024-02-26T03:45:34;19.70;;;11.50;;
24030;SDS011;12240;51.142;22.486;2024-02-26T03:48:00;21.90;;;12.60;;
24030;SDS011;12240;51.142;22.486;2024-02-26T03:50:28;18.40;;;11.70;;
24030;SDS011;12240;51.142;22.486;2024-02-26T03:52:54;21.50;;;12.00;;
24030;SDS011;12240;51.142;22.486;2024-02-26T03:55:21;22.10;;;11.80;;
24030;SDS011;12240;51.142;22.486;2024-02-26T03:57:51;17.70;;;11.70;;
24030;SDS011;12240;51.142;22.486;2024-02-26T04:00:18;18.60;;;11.80;;
24030;SDS011;12240;51.142;22.486;2024-02-26T04:02:48;17.70;;;11.10;;
24030;SDS011;12240;51.142;22.486;2024-02-26T04:05:14;19.30;;;11.10;;
24030;SDS011;12240;51.142;22.486;2024-02-26T04:07:42;18.20;;;11.90;;
24030;SDS011;12240;51.142;22.486;2024-02-26T04:10:11;16.50;;;10.80;;
24030;SDS011;12240;51.142;22.486;2024-02-26T04:12:39;18.00;;;10.50;;
24030;SDS011;12240;51.142;22.486;2024-02-26T04:15:09;18.70;;;11.60;;
24030;SDS011;12240;51.142;22.486;2024-02-26T04:17:37;16.10;;;10.80;;
24030;SDS011;12240;51.142;22.486;2024-02-26T04:20:04;18.20;;;12.00;;
24030;SDS011;12240;51.142;22.486;2024-02-26T04:22:34;18.40;;;9.90;;
24030;SDS011;12240;51.142;22.486;2024-02-26T04:25:01;20.10;;;11.50;;
24030;SDS011;12240;51.142;22.486;2024-02-26T04:27:29;24.10;;;10.70;;
24030;SDS011;12240;51.142;22.486;2024-02-26T04:29:56;19.60;;;10.70;;
24030;SDS011;12240;51.142;22.486;2024-02-26T04:32:23;18.40;;;10.00;;
24030;SDS011;12240;51.142;22.486;2024-02-26T04:34:49;18.80;;;10.60;;
24030;SDS011;12240;51.142;22.486;2024-02-26T04:37:16;15.60;;;10.40;;
24030;SDS011;12240;51.142;22.486;2024-02-26T04:39:43;16.60;;;10.00;;
24030;SDS011;12240;51.142;22.486;2024-02-26T04:42:12;15.30;;;9.00;;
24030;SDS011;12240;51.142;22.486;2024-02-26T04:44:39;17.50;;;9.80;;
24030;SDS011;12240;51.142;22.486;2024-02-26T04:47:06;16.30;;;10.90;;
24030;SDS011;12240;51.142;22.486;2024-02-26T04:49:34;18.60;;;10.50;;
24030;SDS011;12240;51.142;22.486;2024-02-26T04:52:00;15.50;;;10.00;;
24030;SDS011;12240;51.142;22.486;2024-02-26T04:54:27;16.60;;;10.00;;
24030;SDS011;12240;51.142;22.486;2024-02-26T04:56:55;17.30;;;10.30;;
24030;SDS011;12240;51.142;22.486;2024-02-26T04:59:21;16.60;;;10.10;;
24030;SDS011;12240;51.142;22.486;2024-02-26T05:01:48;15.70;;;9.80;;
24030;SDS011;12240;51.142;22.486;2024-02-26T05:04:15;16.70;;;9.70;;
24030;SDS011;12240;51.142;22.486;2024-02-26T05:06:42;15.50;;;9.80;;
24030;SDS011;12240;51.142;22.486;2024-02-26T05:09:08;16.90;;;10.00;;
24030;SDS011;12240;51.142;22.486;2024-02-26T05:11:37;14.00;;;9.00;;
24030;SDS011;12240;51.142;22.486;2024-02-26T05:14:08;16.80;;;9.50;;
24030;SDS011;12240;51.142;22.486;2024-02-26T05:16:36;15.10;;;9.30;;
24030;SDS011;12240;51.142;22.486;2024-02-26T05:19:02;16.00;;;9.30;;
24030;SDS011;12240;51.142;22.486;2024-02-26T05:21:30;17.50;;;9.70;;
24030;SDS011;12240;51.142;22.486;2024-02-26T05:23:56;22.60;;;12.70;;
24030;SDS011;12240;51.142;22.486;2024-02-26T05:26:23;22.40;;;12.00;;
24030;SDS011;12240;51.142;22.486;2024-02-26T05:28:50;23.40;;;13.10;;
24030;SDS011;12240;51.142;22.486;2024-02-26T05:31:17;21.20;;;12.00;;
24030;SDS011;12240;51.142;22.486;2024-02-26T05:33:44;20.60;;;12.20;;
24030;SDS011;12240;51.142;22.486;2024-02-26T05:36:17;20.10;;;11.70;;
24030;SDS011;12240;51.142;22.486;2024-02-26T05:38:45;22.90;;;12.00;;
24030;SDS011;12240;51.142;22.486;2024-02-26T05:41:14;23.40;;;12.30;;
24030;SDS011;12240;51.142;22.486;2024-02-26T05:43:49;26.20;;;13.50;;
24030;SDS011;12240;51.142;22.486;2024-02-26T05:46:19;25.20;;;13.20;;
24030;SDS011;12240;51.142;22.486;2024-02-26T05:48:47;23.10;;;12.60;;
24030;SDS011;12240;51.142;22.486;2024-02-26T05:51:15;20.50;;;12.00;;
24030;SDS011;12240;51.142;22.486;2024-02-26T05:53:41;22.30;;;13.80;;
24030;SDS011;12240;51.142;22.486;2024-02-26T05:56:09;20.70;;;12.00;;
24030;SDS011;12240;51.142;22.486;2024-02-26T05:58:36;21.70;;;12.50;;
24030;SDS011;12240;51.142;22.486;2024-02-26T06:01:02;25.90;;;11.60;;
24030;SDS011;12240;51.142;22.486;2024-02-26T06:03:29;21.50;;;12.60;;
24030;SDS011;12240;51.142;22.486;2024-02-26T06:05:56;20.80;;;13.10;;
24030;SDS011;12240;51.142;22.486;2024-02-26T06:08:23;20.80;;;12.20;;
24030;SDS011;12240;51.142;22.486;2024-02-26T06:10:50;19.10;;;11.00;;
24030;SDS011;12240;51.142;22.486;2024-02-26T06:13:17;25.70;;;14.30;;
24030;SDS011;12240;51.142;22.486;2024-02-26T06:15:44;24.50;;;12.50;;
24030;SDS011;12240;51.142;22.486;2024-02-26T06:18:11;25.70;;;13.20;;
24030;SDS011;12240;51.142;22.486;2024-02-26T06:20:37;24.40;;;13.10;;
24030;SDS011;12240;51.142;22.486;2024-02-26T06:23:04;25.90;;;14.20;;
24030;SDS011;12240;51.142;22.486;2024-02-26T06:25:31;26.20;;;14.90;;
24030;SDS011;12240;51.142;22.486;2024-02-26T06:27:57;29.20;;;14.50;;
24030;SDS011;12240;51.142;22.486;2024-02-26T06:30:24;26.20;;;13.50;;
24030;SDS011;12240;51.142;22.486;2024-02-26T06:32:51;30.20;;;16.60;;
24030;SDS011;12240;51.142;22.486;2024-02-26T06:35:18;28.50;;;15.60;;
24030;SDS011;12240;51.142;22.486;2024-02-26T06:37:45;30.50;;;16.20;;
24030;SDS011;12240;51.142;22.486;2024-02-26T06:40:12;29.00;;;15.40;;
24030;SDS011;12240;51.142;22.486;2024-02-26T06:42:39;31.20;;;17.20;;
24030;SDS011;12240;51.142;22.486;2024-02-26T06:45:05;30.80;;;17.60;;
24030;SDS011;12240;51.142;22.486;2024-02-26T06:47:34;29.30;;;17.70;;
24030;SDS011;12240;51.142;22.486;2024-02-26T06:50:01;29.50;;;16.80;;
24030;SDS011;12240;51.142;22.486;2024-02-26T06:52:28;30.80;;;17.90;;
24030;SDS011;12240;51.142;22.486;2024-02-26T06:54:54;28.50;;;17.00;;
24030;SDS011;12240;51.142;22.486;2024-02-26T06:57:21;31.90;;;16.50;;
24030;SDS011;12240;51.142;22.486;2024-02-26T06:59:48;28.10;;;15.70;;
24030;SDS011;12240;51.142;22.486;2024-02-26T07:02:15;28.60;;;16.30;;
24030;SDS011;12240;51.142;22.486;2024-02-26T07:04:43;26.00;;;16.00;;
24030;SDS011;12240;51.142;22.486;2024-02-26T07:07:09;23.60;;;14.20;;
24030;SDS011;12240;51.142;22.486;2024-02-26T07:09:37;32.70;;;15.80;;
24030;SDS011;12240;51.142;22.486;2024-02-26T07:12:04;28.10;;;16.20;;
24030;SDS011;12240;51.142;22.486;2024-02-26T07:14:31;28.70;;;15.20;;
24030;SDS011;12240;51.142;22.486;2024-02-26T07:16:58;23.10;;;12.80;;
24030;SDS011;12240;51.142;22.486;2024-02-26T07:19:25;24.20;;;14.10;;
24030;SDS011;12240;51.142;22.486;2024-02-26T07:21:52;23.40;;;14.10;;
24030;SDS011;12240;51.142;22.486;2024-02-26T07:24:19;26.30;;;15.00;;
24030;SDS011;12240;51.142;22.486;2024-02-26T07:26:45;26.80;;;14.00;;
24030;SDS011;12240;51.142;22.486;2024-02-26T07:29:12;22.50;;;13.80;;
24030;SDS011;12240;51.142;22.486;2024-02-26T07:31:39;22.30;;;13.90;;
24030;SDS011;12240;51.142;22.486;2024-02-26T07:34:05;28.20;;;12.70;;
24030;SDS011;12240;51.142;22.486;2024-02-26T07:36:32;22.80;;;13.40;;
24030;SDS011;12240;51.142;22.486;2024-02-26T07:38:59;24.00;;;14.40;;
24030;SDS011;12240;51.142;22.486;2024-02-26T07:41:27;23.50;;;13.80;;
24030;SDS011;12240;51.142;22.486;2024-02-26T07:43:54;24.10;;;13.40;;
24030;SDS011;12240;51.142;22.486;2024-02-26T07:46:21;26.30;;;13.50;;
24030;SDS011;12240;51.142;22.486;2024-02-26T07:48:48;22.80;;;13.60;;
24030;SDS011;12240;51.142;22.486;2024-02-26T07:51:15;22.50;;;13.40;;
24030;SDS011;12240;51.142;22.486;2024-02-26T07:53:41;24.40;;;13.60;;
24030;SDS011;12240;51.142;22.486;2024-02-26T07:56:09;24.40;;;13.80;;
24030;SDS011;12240;51.142;22.486;2024-02-26T07:58:36;23.70;;;13.80;;
24030;SDS011;12240;51.142;22.486;2024-02-26T08:01:03;24.50;;;14.30;;
24030;SDS011;12240;51.142;22.486;2024-02-26T08:03:30;22.60;;;11.50;;
24030;SDS011;12240;51.142;22.486;2024-02-26T08:05:56;25.60;;;14.80;;
24030;SDS011;12240;51.142;22.486;2024-02-26T08:08:23;26.10;;;14.40;;
24030;SDS011;12240;51.142;22.486;2024-02-26T08:10:50;25.50;;;14.10;;
24030;SDS011;12240;51.142;22.486;2024-02-26T08:13:17;23.50;;;12.80;;
24030;SDS011;12240;51.142;22.486;2024-02-26T08:15:43;24.90;;;14.10;;
24030;SDS011;12240;51.142;22.486;2024-02-26T08:18:10;27.10;;;16.00;;
24030;SDS011;12240;51.142;22.486;2024-02-26T08:20:37;27.70;;;15.00;;
24030;SDS011;12240;51.142;22.486;2024-02-26T08:23:04;23.50;;;13.10;;
24030;SDS011;12240;51.142;22.486;2024-02-26T08:25:30;24.40;;;15.60;;
24030;SDS011;12240;51.142;22.486;2024-02-26T08:27:57;27.00;;;15.50;;
24030;SDS011;12240;51.142;22.486;2024-02-26T08:30:24;25.30;;;14.60;;
24030;SDS011;12240;51.142;22.486;2024-02-26T08:32:52;24.10;;;14.20;;
24030;SDS011;12240;51.142;22.486;2024-02-26T08:35:19;28.30;;;14.70;;
24030;SDS011;12240;51.142;22.486;2024-02-26T08:37:46;29.70;;;16.00;;
24030;SDS011;12240;51.142;22.486;2024-02-26T08:40:14;27.80;;;14.90;;
24030;SDS011;12240;51.142;22.486;2024-02-26T08:42:41;23.70;;;13.10;;
24030;SDS011;12240;51.142;22.486;2024-02-26T08:45:09;25.10;;;13.00;;
24030;SDS011;12240;51.142;22.486;2024-02-26T08:47:36;27.10;;;15.80;;
24030;SDS011;12240;51.142;22.486;2024-02-26T08:50:03;24.10;;;14.20;;
24030;SDS011;12240;51.142;22.486;2024-02-26T08:52:31;23.90;;;13.20;;
24030;SDS011;12240;51.142;22.486;2024-02-26T08:54:59;26.10;;;15.20;;
24030;SDS011;12240;51.142;22.486;2024-02-26T08:57:26;28.10;;;15.10;;
24030;SDS011;12240;51.142;22.486;2024-02-26T08:59:56;31.40;;;16.00;;
24030;SDS011;12240;51.142;22.486;2024-02-26T09:02:23;27.90;;;13.40;;
24030;SDS011;12240;51.142;22.486;2024-02-26T09:04:50;25.70;;;14.80;;
24030;SDS011;12240;51.142;22.486;2024-02-26T09:07:20;28.00;;;14.60;;
24030;SDS011;12240;51.142;22.486;2024-02-26T09:09:47;28.90;;;15.60;;
24030;SDS011;12240;51.142;22.486;2024-02-26T09:12:14;27.10;;;15.70;;
24030;SDS011;12240;51.142;22.486;2024-02-26T09:14:41;27.60;;;15.00;;
24030;SDS011;12240;51.142;22.486;2024-02-26T09:17:07;30.90;;;16.00;;
24030;SDS011;12240;51.142;22.486;2024-02-26T09:19:34;28.10;;;15.40;;
24030;SDS011;12240;51.142;22.486;2024-02-26T09:22:01;26.10;;;13.90;;
24030;SDS011;12240;51.142;22.486;2024-02-26T09:24:28;32.30;;;17.50;;
24030;SDS011;12240;51.142;22.486;2024-02-26T09:26:55;28.30;;;15.70;;
24030;SDS011;12240;51.142;22.486;2024-02-26T09:29:22;29.50;;;15.50;;
24030;SDS011;12240;51.142;22.486;2024-02-26T09:31:49;27.00;;;14.30;;
24030;SDS011;12240;51.142;22.486;2024-02-26T09:34:16;28.80;;;16.50;;
24030;SDS011;12240;51.142;22.486;2024-02-26T09:36:43;32.40;;;17.40;;
24030;SDS011;12240;51.142;22.486;2024-02-26T09:39:09;27.00;;;15.90;;
24030;SDS011;12240;51.142;22.486;2024-02-26T09:41:38;27.60;;;15.70;;
24030;SDS011;12240;51.142;22.486;2024-02-26T09:44:05;27.80;;;15.00;;
24030;SDS011;12240;51.142;22.486;2024-02-26T09:46:32;34.50;;;16.00;;
24030;SDS011;12240;51.142;22.486;2024-02-26T09:49:00;30.60;;;16.10;;
24030;SDS011;12240;51.142;22.486;2024-02-26T09:51:27;30.00;;;16.80;;
24030;SDS011;12240;51.142;22.486;2024-02-26T09:53:55;29.20;;;15.50;;
24030;SDS011;12240;51.142;22.486;2024-02-26T09:56:25;30.00;;;16.40;;
24030;SDS011;12240;51.142;22.486;2024-02-26T09:58:53;32.40;;;16.50;;
24030;SDS011;12240;51.142;22.486;2024-02-26T10:01:22;28.30;;;15.30;;
24030;SDS011;12240;51.142;22.486;2024-02-26T10:06:39;28.20;;;13.90;;
24030;SDS011;12240;51.142;22.486;2024-02-26T10:09:07;32.00;;;16.40;;
24030;SDS011;12240;51.142;22.486;2024-02-26T10:11:37;28.10;;;15.70;;
24030;SDS011;12240;51.142;22.486;2024-02-26T10:16:51;32.40;;;15.60;;
24030;SDS011;12240;51.142;22.486;2024-02-26T10:19:27;32.90;;;18.20;;
24030;SDS011;12240;51.142;22.486;2024-02-26T10:21:56;33.90;;;15.90;;
24030;SDS011;12240;51.142;22.486;2024-02-26T10:24:24;30.30;;;15.80;;
24030;SDS011;12240;51.142;22.486;2024-02-26T10:26:52;26.20;;;14.30;;
24030;SDS011;12240;51.142;22.486;2024-02-26T10:29:21;27.60;;;13.30;;
24030;SDS011;12240;51.142;22.486;2024-02-26T10:31:52;25.40;;;14.00;;
24030;SDS011;12240;51.142;22.486;2024-02-26T10:34:20;25.90;;;14.00;;
24030;SDS011;12240;51.142;22.486;2024-02-26T10:36:47;29.10;;;15.50;;
24030;SDS011;12240;51.142;22.486;2024-02-26T10:39:20;25.00;;;13.30;;
24030;SDS011;12240;51.142;22.486;2024-02-26T10:41:48;25.90;;;14.00;;
24030;SDS011;12240;51.142;22.486;2024-02-26T10:44:15;29.80;;;14.30;;
24030;SDS011;12240;51.142;22.486;2024-02-26T10:46:46;21.70;;;11.70;;
24030;SDS011;12240;51.142;22.486;2024-02-26T10:49:15;21.90;;;12.60;;
24030;SDS011;12240;51.142;22.486;2024-02-26T10:51:45;21.00;;;11.50;;
24030;SDS011;12240;51.142;22.486;2024-02-26T10:54:19;17.10;;;10.10;;
24030;SDS011;12240;51.142;22.486;2024-02-26T10:56:46;19.40;;;10.30;;
24030;SDS011;12240;51.142;22.486;2024-02-26T10:59:16;19.90;;;10.70;;
24030;SDS011;12240;51.142;22.486;2024-02-26T11:01:47;24.70;;;10.80;;
24030;SDS011;12240;51.142;22.486;2024-02-26T11:04:16;21.30;;;10.60;;
24030;SDS011;12240;51.142;22.486;2024-02-26T11:06:46;18.00;;;10.70;;
24030;SDS011;12240;51.142;22.486;2024-02-26T11:09:14;16.80;;;10.40;;
24030;SDS011;12240;51.142;22.486;2024-02-26T11:11:42;16.00;;;9.50;;
24030;SDS011;12240;51.142;22.486;2024-02-26T11:14:09;20.50;;;9.60;;
24030;SDS011;12240;51.142;22.486;2024-02-26T11:16:37;21.90;;;10.80;;
24030;SDS011;12240;51.142;22.486;2024-02-26T11:19:06;20.40;;;10.10;;
24030;SDS011;12240;51.142;22.486;2024-02-26T11:24:08;20.70;;;10.00;;
24030;SDS011;12240;51.142;22.486;2024-02-26T11:26:42;16.50;;;10.30;;
24030;SDS011;12240;51.142;22.486;2024-02-26T11:29:41;18.10;;;10.10;;
24030;SDS011;12240;51.142;22.486;2024-02-26T11:32:12;18.00;;;9.90;;
24030;SDS011;12240;51.142;22.486;2024-02-26T11:34:40;21.20;;;9.70;;
24030;SDS011;12240;51.142;22.486;2024-02-26T11:37:13;18.90;;;8.80;;
24030;SDS011;12240;51.142;22.486;2024-02-26T11:39:42;15.70;;;9.40;;
24030;SDS011;12240;51.142;22.486;2024-02-26T11:42:13;16.30;;;8.70;;
24030;SDS011;12240;51.142;22.486;2024-02-26T11:44:41;20.90;;;10.90;;
24030;SDS011;12240;51.142;22.486;2024-02-26T11:47:12;15.20;;;9.00;;
24030;SDS011;12240;51.142;22.486;2024-02-26T11:49:39;15.30;;;9.00;;
24030;SDS011;12240;51.142;22.486;2024-02-26T11:52:08;14.00;;;9.00;;
24030;SDS011;12240;51.142;22.486;2024-02-26T11:57:22;14.10;;;8.50;;
24030;SDS011;12240;51.142;22.486;2024-02-26T12:05:11;13.30;;;7.40;;
24030;SDS011;12240;51.142;22.486;2024-02-26T12:07:44;16.40;;;9.40;;
24030;SDS011;12240;51.142;22.486;2024-02-26T12:10:24;15.50;;;9.60;;
24030;SDS011;12240;51.142;22.486;2024-02-26T12:12:53;16.30;;;9.30;;
24030;SDS011;12240;51.142;22.486;2024-02-26T12:15:46;16.30;;;9.90;;
24030;SDS011;12240;51.142;22.486;2024-02-26T12:18:22;14.80;;;8.50;;
24030;SDS011;12240;51.142;22.486;2024-02-26T12:21:02;20.00;;;9.90;;
24030;SDS011;12240;51.142;22.486;2024-02-26T12:23:30;18.30;;;9.30;;
24030;SDS011;12240;51.142;22.486;2024-02-26T12:26:00;16.00;;;8.20;;
24030;SDS011;12240;51.142;22.486;2024-02-26T12:28:32;16.90;;;8.60;;
24030;SDS011;12240;51.142;22.486;2024-02-26T12:30:59;13.60;;;8.80;;
24030;SDS011;12240;51.142;22.486;2024-02-26T12:33:27;17.70;;;9.20;;
24030;SDS011;12240;51.142;22.486;2024-02-26T12:35:55;16.60;;;9.00;;
24030;SDS011;12240;51.142;22.486;2024-02-26T12:38:22;17.60;;;10.30;;
24030;SDS011;12240;51.142;22.486;2024-02-26T12:40:49;19.80;;;10.90;;
24030;SDS011;12240;51.142;22.486;2024-02-26T12:43:16;24.00;;;11.10;;
24030;SDS011;12240;51.142;22.486;2024-02-26T12:45:43;21.80;;;10.20;;
24030;SDS011;12240;51.142;22.486;2024-02-26T12:48:14;19.80;;;9.00;;
24030;SDS011;12240;51.142;22.486;2024-02-26T12:50:45;16.10;;;8.80;;
24030;SDS011;12240;51.142;22.486;2024-02-26T12:53:14;12.50;;;7.80;;
24030;SDS011;12240;51.142;22.486;2024-02-26T12:55:41;17.60;;;8.30;;
24030;SDS011;12240;51.142;22.486;2024-02-26T12:58:09;15.40;;;8.20;;
24030;SDS011;12240;51.142;22.486;2024-02-26T13:00:36;15.60;;;7.70;;
24030;SDS011;12240;51.142;22.486;2024-02-26T13:03:03;13.90;;;8.10;;
24030;SDS011;12240;51.142;22.486;2024-02-26T13:05:30;16.10;;;9.00;;
24030;SDS011;12240;51.142;22.486;2024-02-26T13:07:58;14.20;;;8.10;;
24030;SDS011;12240;51.142;22.486;2024-02-26T13:10:25;15.80;;;8.10;;
24030;SDS011;12240;51.142;22.486;2024-02-26T13:12:52;20.20;;;8.40;;
24030;SDS011;12240;51.142;22.486;2024-02-26T13:15:20;13.90;;;7.50;;
24030;SDS011;12240;51.142;22.486;2024-02-26T13:17:49;11.50;;;7.50;;
24030;SDS011;12240;51.142;22.486;2024-02-26T13:20:29;15.30;;;8.40;;
24030;SDS011;12240;51.142;22.486;2024-02-26T13:23:01;15.70;;;7.90;;
24030;SDS011;12240;51.142;22.486;2024-02-26T13:28:06;15.00;;;8.00;;
24030;SDS011;12240;51.142;22.486;2024-02-26T13:30:33;16.70;;;8.20;;
24030;SDS011;12240;51.142;22.486;2024-02-26T13:33:10;14.40;;;8.10;;
24030;SDS011;12240;51.142;22.486;2024-02-26T13:35:38;17.90;;;7.60;;
24030;SDS011;12240;51.142;22.486;2024-02-26T13:38:06;15.00;;;7.70;;
24030;SDS011;12240;51.142;22.486;2024-02-26T13:40:33;18.60;;;7.30;;
24030;SDS011;12240;51.142;22.486;2024-02-26T13:43:01;13.60;;;7.40;;
24030;SDS011;12240;51.142;22.486;2024-02-26T13:45:27;15.10;;;7.50;;
24030;SDS011;12240;51.142;22.486;2024-02-26T13:48:01;16.30;;;7.30;;
24030;SDS011;12240;51.142;22.486;2024-02-26T13:50:30;14.30;;;7.20;;
24030;SDS011;12240;51.142;22.486;2024-02-26T13:52:56;15.70;;;7.00;;
24030;SDS011;12240;51.142;22.486;2024-02-26T13:55:28;19.40;;;9.40;;
24030;SDS011;12240;51.142;22.486;2024-02-26T13:57:56;22.20;;;10.00;;
24030;SDS011;12240;51.142;22.486;2024-02-26T14:00:29;32.80;;;12.40;;
24030;SDS011;12240;51.142;22.486;2024-02-26T14:03:00;32.00;;;13.10;;
24030;SDS011;12240;51.142;22.486;2024-02-26T14:05:28;34.10;;;15.80;;
24030;SDS011;12240;51.142;22.486;2024-02-26T14:07:54;19.90;;;9.40;;
24030;SDS011;12240;51.142;22.486;2024-02-26T14:10:21;22.70;;;8.30;;
24030;SDS011;12240;51.142;22.486;2024-02-26T14:12:48;15.90;;;7.20;;
24030;SDS011;12240;51.142;22.486;2024-02-26T14:15:15;12.30;;;7.10;;
24030;SDS011;12240;51.142;22.486;2024-02-26T14:17:42;13.80;;;7.20;;
24030;SDS011;12240;51.142;22.486;2024-02-26T14:20:10;14.90;;;7.40;;
24030;SDS011;12240;51.142;22.486;2024-02-26T14:22:37;14.60;;;7.30;;
24030;SDS011;12240;51.142;22.486;2024-02-26T14:25:03;15.10;;;7.50;;
24030;SDS011;12240;51.142;22.486;2024-02-26T14:27:31;12.10;;;7.00;;
24030;SDS011;12240;51.142;22.486;2024-02-26T14:29:58;13.10;;;7.70;;
24030;SDS011;12240;51.142;22.486;2024-02-26T14:32:25;15.30;;;7.30;;
24030;SDS011;12240;51.142;22.486;2024-02-26T14:34:52;17.10;;;8.10;;
24030;SDS011;12240;51.142;22.486;2024-02-26T14:37:19;14.30;;;7.20;;